createdAt,value
2019-01-28T00:00:40.385Z,98285.22
2019-01-28T00:03:10.176Z,98276.74
2019-01-28T00:05:39.090Z,98268.19
2019-01-28T00:08:08.182Z,98267.84
2019-01-28T00:10:36.970Z,98259.03
2019-01-28T00:13:05.861Z,98270.19
2019-01-28T00:15:34.752Z,98267.58
2019-01-28T00:18:03.644Z,98264.13
2019-01-28T00:20:32.538Z,98269.89
2019-01-28T00:23:01.426Z,98271.41
2019-01-28T00:25:30.314Z,98287.38
2019-01-28T00:27:59.205Z,98284.05
2019-01-28T00:30:28.096Z,98287.64
2019-01-28T00:32:56.987Z,98284.55
2019-01-28T00:35:25.896Z,98266.05
2019-01-28T00:37:55.175Z,98258.43
2019-01-28T00:40:24.068Z,98248.87
2019-01-28T00:42:52.958Z,98260.91
2019-01-28T00:45:21.850Z,98268.05
2019-01-28T00:47:50.739Z,98268.92
2019-01-28T00:50:19.628Z,98262.86
2019-01-28T00:53:00.807Z,98251.99
2019-01-28T00:55:29.698Z,98242.11
2019-01-28T00:57:58.588Z,98235.66
2019-01-28T01:00:30.451Z,98228.88
2019-01-28T01:02:59.340Z,98218.40
2019-01-28T01:05:28.128Z,98228.63
2019-01-28T01:07:57.531Z,98221.38
2019-01-28T01:10:26.426Z,98219.95
2019-01-28T01:12:55.309Z,98222.56
2019-01-28T01:15:24.823Z,98225.05
2019-01-28T01:17:53.810Z,98230.80
2019-01-28T01:20:22.904Z,98216.01
2019-01-28T01:22:51.793Z,98205.41
2019-01-28T01:25:20.688Z,98205.76
2019-01-28T01:27:49.575Z,98204.70
2019-01-28T01:30:18.980Z,98209.09
2019-01-28T01:32:47.971Z,98200.14
2019-01-28T01:35:16.862Z,98205.76
2019-01-28T01:37:45.856Z,98194.30
2019-01-28T01:40:16.178Z,98200.73
2019-01-28T01:42:45.271Z,98192.77
2019-01-28T01:45:16.830Z,98188.20
2019-01-28T01:47:45.819Z,98175.72
2019-01-28T01:50:15.596Z,98166.75
2019-01-28T01:52:44.624Z,98173.92
2019-01-28T01:55:14.617Z,98191.45
2019-01-28T01:57:43.530Z,98194.42
2019-01-28T02:00:19.819Z,98188.68
2019-01-28T02:02:48.792Z,98183.21
2019-01-28T02:05:17.780Z,98185.24
2019-01-28T02:07:46.670Z,98179.50
2019-01-28T02:10:16.855Z,98186.18
2019-01-28T02:12:45.987Z,98183.09
2019-01-28T02:15:17.696Z,98185.71
2019-01-28T02:17:47.148Z,98195.02
2019-01-28T02:20:16.740Z,98192.02
2019-01-28T02:22:45.965Z,98197.27
2019-01-28T02:25:15.810Z,98195.84
2019-01-28T02:27:44.761Z,98205.62
2019-01-28T02:30:15.802Z,98198.34
2019-01-28T02:32:45.000Z,98198.71
2019-01-28T02:35:14.285Z,98198.09
2019-01-28T02:37:43.187Z,98200.11
2019-01-28T02:40:15.047Z,98206.80
2019-01-28T02:42:44.043Z,98202.61
2019-01-28T02:45:14.574Z,98203.66
2019-01-28T02:47:43.464Z,98200.72
2019-01-28T02:50:16.762Z,98197.63
2019-01-28T02:52:45.951Z,98194.20
2019-01-28T02:55:16.738Z,98198.23
2019-01-28T02:57:45.679Z,98198.88
2019-01-28T03:00:17.539Z,98193.77
2019-01-28T03:02:46.737Z,98195.54
2019-01-28T03:05:16.753Z,98190.80
2019-01-28T03:07:45.745Z,98190.86
2019-01-28T03:10:17.402Z,98192.88
2019-01-28T03:12:46.292Z,98184.77
2019-01-28T03:15:16.331Z,98195.41
2019-01-28T03:17:45.406Z,98188.97
2019-01-28T03:20:16.314Z,98187.77
2019-01-28T03:22:45.233Z,98185.36
2019-01-28T03:25:16.887Z,98180.69
2019-01-28T03:27:45.983Z,98177.48
2019-01-28T03:30:17.529Z,98175.30
2019-01-28T03:32:46.427Z,98168.47
2019-01-28T03:35:15.583Z,98168.57
2019-01-28T03:37:44.514Z,98167.27
2019-01-28T03:40:16.382Z,98160.95
2019-01-28T03:42:45.371Z,98165.94
2019-01-28T03:45:19.480Z,98160.95
2019-01-28T03:47:48.375Z,98159.86
2019-01-28T03:50:18.900Z,98155.71
2019-01-28T03:52:48.021Z,98157.96
2019-01-28T03:55:17.096Z,98146.28
2019-01-28T03:57:46.188Z,98141.48
2019-01-28T04:00:20.881Z,98141.97
2019-01-28T04:02:49.803Z,98135.42
2019-01-28T04:05:18.905Z,98134.84
2019-01-28T04:07:47.894Z,98135.55
2019-01-28T04:10:18.886Z,98131.22
2019-01-28T04:13:07.489Z,98135.77
2019-01-28T04:15:36.375Z,98150.08
2019-01-28T04:18:05.265Z,98146.72
2019-01-28T04:20:34.258Z,98151.83
2019-01-28T04:23:03.148Z,98149.22
2019-01-28T04:25:32.039Z,98157.67
2019-01-28T04:28:00.931Z,98158.25
2019-01-28T04:30:29.821Z,98169.08
2019-01-28T04:32:58.710Z,98161.70
2019-01-28T04:35:27.601Z,98161.57
2019-01-28T04:37:57.311Z,98159.00
2019-01-28T04:40:26.200Z,98151.59
2019-01-28T04:42:55.091Z,98143.12
2019-01-28T04:45:23.879Z,98149.59
2019-01-28T04:47:52.680Z,98151.51
2019-01-28T04:50:22.488Z,98160.70
2019-01-28T04:52:51.471Z,98154.84
2019-01-28T04:55:20.567Z,98148.20
2019-01-28T04:57:49.460Z,98146.67
2019-01-28T05:00:23.979Z,98150.22
2019-01-28T05:02:52.871Z,98148.22
2019-01-28T05:05:22.239Z,98149.16
2019-01-28T05:07:51.062Z,98155.13
2019-01-28T05:10:21.389Z,98155.49
2019-01-28T05:12:50.483Z,98163.94
2019-01-28T05:15:20.472Z,98164.03
2019-01-28T05:17:49.389Z,98160.41
2019-01-28T05:20:23.587Z,98152.98
2019-01-28T05:22:52.496Z,98143.30
2019-01-28T05:25:21.383Z,98136.76
2019-01-28T05:27:50.397Z,98138.67
2019-01-28T05:30:21.375Z,98120.55
2019-01-28T05:32:50.414Z,98122.27
2019-01-28T05:35:20.942Z,98113.41
2019-01-28T05:37:49.830Z,98110.63
2019-01-28T05:40:25.993Z,98115.50
2019-01-28T05:42:54.889Z,98123.04
2019-01-28T05:45:25.066Z,98134.77
2019-01-28T05:47:54.102Z,98138.56
2019-01-28T05:50:22.986Z,98147.98
2019-01-28T05:52:51.979Z,98135.29
2019-01-28T05:55:21.387Z,98122.62
2019-01-28T05:57:50.274Z,98120.30
2019-01-28T06:00:34.012Z,98126.25
2019-01-28T06:03:02.802Z,98125.87
2019-01-28T06:05:31.690Z,98127.06
2019-01-28T06:08:00.580Z,98121.57
2019-01-28T06:10:29.471Z,98131.23
2019-01-28T06:12:58.361Z,98124.20
2019-01-28T06:15:27.255Z,98124.33
2019-01-28T06:17:56.346Z,98111.87
2019-01-28T06:20:26.454Z,98115.81
2019-01-28T06:22:55.361Z,98119.13
2019-01-28T06:25:24.156Z,98125.56
2019-01-28T06:27:53.038Z,98132.16
2019-01-28T06:30:24.592Z,98136.31
2019-01-28T06:32:53.581Z,98141.52
2019-01-28T06:35:22.473Z,98145.09
2019-01-28T06:37:51.725Z,98141.65
2019-01-28T06:40:23.225Z,98148.56
2019-01-28T06:42:52.190Z,98133.58
2019-01-28T06:45:21.106Z,98134.42
2019-01-28T06:47:49.997Z,98135.36
2019-01-28T06:50:20.982Z,98133.31
2019-01-28T06:52:50.133Z,98131.55
2019-01-28T06:55:19.434Z,98128.59
2019-01-28T06:57:48.528Z,98126.39
2019-01-28T07:00:29.747Z,98134.70
2019-01-28T07:02:59.313Z,98130.14
2019-01-28T07:05:28.309Z,98134.19
2019-01-28T07:07:57.507Z,98144.11
2019-01-28T07:10:26.600Z,98141.45
2019-01-28T07:12:56.515Z,98135.88
2019-01-28T07:15:25.713Z,98130.52
2019-01-28T07:17:55.371Z,98147.62
2019-01-28T07:20:27.487Z,98128.25
2019-01-28T07:22:56.480Z,98114.45
2019-01-28T07:25:25.375Z,98108.68
2019-01-28T07:27:54.266Z,98105.14
2019-01-28T07:30:31.855Z,98100.55
2019-01-28T07:33:00.745Z,98093.27
2019-01-28T07:35:29.640Z,98080.53
2019-01-28T07:37:58.834Z,98075.01
2019-01-28T07:40:27.727Z,98078.57
2019-01-28T07:42:56.615Z,98085.42
2019-01-28T07:45:33.801Z,98076.46
2019-01-28T07:48:03.371Z,98080.02
2019-01-28T07:50:32.302Z,98084.73
2019-01-28T07:53:01.295Z,98085.72
2019-01-28T07:55:30.184Z,98089.81
2019-01-28T07:57:59.072Z,98089.23
2019-01-28T08:00:31.986Z,98092.99
2019-01-28T08:03:00.855Z,98088.87
2019-01-28T08:05:30.421Z,98087.67
2019-01-28T08:07:59.654Z,98099.47
2019-01-28T08:10:28.643Z,98096.07
2019-01-28T08:12:57.741Z,98100.36
2019-01-28T08:15:28.393Z,98105.09
2019-01-28T08:17:57.529Z,98109.94
2019-01-28T08:20:26.461Z,98102.92
2019-01-28T08:22:55.351Z,98104.09
2019-01-28T08:25:24.446Z,98090.63
2019-01-28T08:27:53.344Z,98096.55
2019-01-28T08:30:25.099Z,98093.14
2019-01-28T08:32:53.984Z,98096.19
2019-01-28T08:35:23.387Z,98093.55
2019-01-28T08:37:52.277Z,98094.66
2019-01-28T08:40:22.762Z,98094.40
2019-01-28T08:42:51.596Z,98088.39
2019-01-28T08:45:20.588Z,98087.77
2019-01-28T08:47:49.580Z,98084.36
2019-01-28T08:50:27.584Z,98081.54
2019-01-28T08:52:56.474Z,98081.80
2019-01-28T08:55:27.283Z,98071.17
2019-01-28T08:57:56.520Z,98065.70
2019-01-28T09:00:28.277Z,98065.20
2019-01-28T09:02:57.174Z,98061.53
2019-01-28T09:05:26.661Z,98050.44
2019-01-28T09:07:55.551Z,98047.11
2019-01-28T09:10:27.961Z,98045.94
2019-01-28T09:12:57.082Z,98061.06
2019-01-28T09:15:26.531Z,98063.77
2019-01-28T09:17:56.014Z,98075.05
2019-01-28T09:20:30.451Z,98066.30
2019-01-28T09:22:59.341Z,98077.95
2019-01-28T09:25:28.435Z,98076.88
2019-01-28T09:27:57.326Z,98088.09
2019-01-28T09:30:28.316Z,98080.06
2019-01-28T09:32:57.155Z,98071.00
2019-01-28T09:35:26.253Z,98057.08
2019-01-28T09:37:56.489Z,98054.83
2019-01-28T09:40:30.406Z,98056.84
2019-01-28T09:42:59.577Z,98057.41
2019-01-28T09:45:33.696Z,98052.91
2019-01-28T09:48:02.585Z,98050.59
2019-01-28T09:50:31.472Z,98050.80
2019-01-28T09:53:00.671Z,98054.67
2019-01-28T09:55:29.663Z,98051.89
2019-01-28T09:57:58.553Z,98037.61
2019-01-28T10:00:33.693Z,98036.98
2019-01-28T10:03:02.482Z,98035.45
2019-01-28T10:05:31.472Z,98029.36
2019-01-28T10:08:00.365Z,98022.92
2019-01-28T10:10:29.460Z,98018.28
2019-01-28T10:12:58.450Z,98022.78
2019-01-28T10:15:29.037Z,98022.00
2019-01-28T10:17:58.180Z,98024.30
2019-01-28T10:20:32.882Z,98024.38
2019-01-28T10:23:02.103Z,98024.73
2019-01-28T10:25:30.994Z,98036.59
2019-01-28T10:28:00.251Z,98025.28
2019-01-28T10:30:34.823Z,98025.13
2019-01-28T10:33:04.414Z,98025.34
2019-01-28T10:35:35.156Z,98019.30
2019-01-28T10:38:04.946Z,98025.31
2019-01-28T10:40:36.799Z,98019.24
2019-01-28T10:43:06.843Z,98008.85
2019-01-28T10:45:35.848Z,98014.02
2019-01-28T10:48:05.329Z,98012.19
2019-01-28T10:50:34.560Z,98001.62
2019-01-28T10:53:03.433Z,97999.55
2019-01-28T10:55:32.221Z,97996.54
2019-01-28T10:58:01.231Z,97975.99
2019-01-28T11:00:42.062Z,97982.27
2019-01-28T11:03:13.087Z,97986.03
2019-01-28T11:05:42.019Z,97974.19
2019-01-28T11:08:10.908Z,97975.20
2019-01-28T11:10:40.003Z,97968.19
2019-01-28T11:13:08.975Z,97957.19
2019-01-28T11:15:37.907Z,97970.23
2019-01-28T11:18:18.996Z,97961.27
2019-01-28T11:20:47.957Z,97962.95
2019-01-28T11:23:16.936Z,97963.36
2019-01-28T11:25:46.129Z,97958.36
2019-01-28T11:28:15.038Z,97960.67
2019-01-28T11:30:51.438Z,97962.53
2019-01-28T11:33:20.461Z,97957.55
2019-01-28T11:35:49.963Z,97953.11
2019-01-28T11:38:19.094Z,97937.98
2019-01-28T11:40:48.212Z,97932.17
2019-01-28T11:43:17.230Z,97934.86
2019-01-28T11:45:52.365Z,97929.05
2019-01-28T11:48:21.294Z,97934.34
2019-01-28T11:50:55.932Z,97933.53
2019-01-28T11:53:20.942Z,97937.57
2019-01-28T11:55:49.833Z,97933.67
2019-01-28T11:58:18.724Z,97934.48
2019-01-28T12:00:58.059Z,97941.80
2019-01-28T12:03:27.059Z,97943.64
2019-01-28T12:05:55.969Z,97939.19
2019-01-28T12:08:25.912Z,97929.31
2019-01-28T12:10:54.748Z,97929.41
2019-01-28T12:13:23.765Z,97922.05
2019-01-28T12:15:52.733Z,97929.06
2019-01-28T12:18:21.629Z,97920.50
2019-01-28T12:20:53.731Z,97910.42
2019-01-28T12:23:21.351Z,97900.28
2019-01-28T12:25:50.241Z,97896.67
2019-01-28T12:28:19.138Z,97904.45
2019-01-28T12:30:48.023Z,97901.83
2019-01-28T12:33:16.916Z,97900.81
2019-01-28T12:35:45.805Z,97901.48
2019-01-28T12:38:15.106Z,97901.16
2019-01-28T12:40:43.996Z,97886.06
2019-01-28T12:43:12.886Z,97891.19
2019-01-28T12:45:41.779Z,97890.66
2019-01-28T12:48:10.668Z,97891.17
2019-01-28T12:50:39.557Z,97892.79
2019-01-28T12:53:08.505Z,97893.05
2019-01-28T12:55:37.444Z,97888.97
2019-01-28T12:58:06.981Z,97887.46
2019-01-28T13:00:37.988Z,97879.33
2019-01-28T13:03:07.669Z,97882.44
2019-01-28T13:05:36.792Z,97869.45
2019-01-28T13:08:06.135Z,97864.00
2019-01-28T13:10:35.318Z,97867.32
2019-01-28T13:13:04.393Z,97867.37
2019-01-28T13:15:34.668Z,97868.56
2019-01-28T13:18:03.810Z,97879.01
2019-01-28T13:20:32.699Z,97880.09
2019-01-28T13:23:01.902Z,97883.59
2019-01-28T13:25:33.143Z,97890.77
2019-01-28T13:28:02.136Z,97889.64
2019-01-28T13:30:41.166Z,97895.97
2019-01-28T13:33:12.703Z,97894.50
2019-01-28T13:35:41.506Z,97884.42
2019-01-28T13:38:10.809Z,97882.92
2019-01-28T13:40:39.695Z,97882.53
2019-01-28T13:43:08.588Z,97883.22
2019-01-28T13:45:37.577Z,97888.69
2019-01-28T13:48:09.233Z,97894.63
2019-01-28T13:50:38.123Z,97895.77
2019-01-28T13:53:07.476Z,97893.38
2019-01-28T13:55:36.314Z,97893.16
2019-01-28T13:58:05.565Z,97892.13
2019-01-28T14:00:35.019Z,97901.80
2019-01-28T14:03:04.013Z,97892.41
2019-01-28T14:05:32.901Z,97881.03
2019-01-28T14:08:01.896Z,97880.14
2019-01-28T14:10:30.784Z,97894.95
2019-01-28T14:12:59.677Z,97881.91
2019-01-28T14:15:34.363Z,97885.74
2019-01-28T14:18:03.195Z,97891.14
2019-01-28T14:20:36.997Z,97896.44
2019-01-28T14:23:06.296Z,97882.43
2019-01-28T14:25:35.087Z,97882.79
2019-01-28T14:28:05.705Z,97889.28
2019-01-28T14:30:37.706Z,97887.16
2019-01-28T14:33:07.291Z,97889.64
2019-01-28T14:35:36.574Z,97878.39
2019-01-28T14:38:07.328Z,97883.20
2019-01-28T14:40:36.812Z,97882.71
2019-01-28T14:43:05.921Z,97885.95
2019-01-28T14:45:34.929Z,97881.34
2019-01-28T14:48:04.011Z,97884.31
2019-01-28T14:50:34.610Z,97871.74
2019-01-28T14:53:03.535Z,97880.64
2019-01-28T14:55:32.630Z,97880.16
2019-01-28T14:58:01.826Z,97877.20
2019-01-28T15:00:39.143Z,97878.43
2019-01-28T15:03:08.002Z,97879.27
2019-01-28T15:05:37.206Z,97885.28
2019-01-28T15:08:06.745Z,97888.45
2019-01-28T15:10:35.801Z,97889.93
2019-01-28T15:13:05.102Z,97882.37
2019-01-28T15:15:36.346Z,97885.28
2019-01-28T15:18:06.435Z,97892.63
2019-01-28T15:20:35.379Z,97890.52
2019-01-28T15:23:04.409Z,97880.80
2019-01-28T15:25:33.343Z,97881.22
2019-01-28T15:28:02.232Z,97891.09
2019-01-28T15:30:32.118Z,97883.61
2019-01-28T15:33:01.256Z,97884.88
2019-01-28T15:35:30.135Z,97881.48
2019-01-28T15:37:59.127Z,97889.16
2019-01-28T15:40:32.182Z,97877.23
2019-01-28T15:43:01.091Z,97875.98
2019-01-28T15:45:32.557Z,97883.91
2019-01-28T15:48:01.450Z,97878.24
2019-01-28T15:50:30.440Z,97878.39
2019-01-28T15:52:59.646Z,97878.27
2019-01-28T15:55:31.317Z,97878.00
2019-01-28T15:58:01.107Z,97890.28
2019-01-28T16:00:32.871Z,97886.91
2019-01-28T16:03:02.626Z,97887.37
2019-01-28T16:05:31.916Z,97884.14
2019-01-28T16:08:01.891Z,97886.53
2019-01-28T16:10:30.785Z,97889.22
2019-01-28T16:12:59.671Z,97881.81
2019-01-28T16:15:37.177Z,97895.19
2019-01-28T16:18:09.565Z,97890.66
2019-01-28T16:20:38.950Z,97888.33
2019-01-28T16:23:08.298Z,97889.13
2019-01-28T16:25:37.651Z,97888.69
2019-01-28T16:28:06.830Z,97890.90
2019-01-28T16:30:36.295Z,97886.94
2019-01-28T16:33:05.202Z,97888.59
2019-01-28T16:35:33.987Z,97887.02
2019-01-28T16:38:02.918Z,97893.73
2019-01-28T16:40:31.902Z,97900.48
2019-01-28T16:43:00.903Z,97893.30
2019-01-28T16:45:30.200Z,97890.13
2019-01-28T16:47:59.093Z,97881.30
2019-01-28T16:50:32.898Z,97878.48
2019-01-28T16:53:02.408Z,97874.02
2019-01-28T16:55:31.297Z,97875.65
2019-01-28T16:58:00.378Z,97878.00
2019-01-28T17:00:37.951Z,97867.81
2019-01-28T17:03:08.065Z,97876.53
2019-01-28T17:05:37.293Z,97884.94
2019-01-28T17:08:06.961Z,97890.13
2019-01-28T17:10:35.902Z,97892.08
2019-01-28T17:13:05.489Z,97888.19
2019-01-28T17:15:34.501Z,97887.39
2019-01-28T17:18:03.396Z,97888.56
2019-01-28T17:20:35.646Z,97889.93
2019-01-28T17:23:04.142Z,97877.73
2019-01-28T17:25:41.636Z,97879.89
2019-01-28T17:28:10.627Z,97879.95
2019-01-28T17:30:45.048Z,97879.84
2019-01-28T17:33:14.085Z,97873.56
2019-01-28T17:35:43.034Z,97868.33
2019-01-28T17:38:12.128Z,97853.56
2019-01-28T17:40:41.610Z,97855.44
2019-01-28T17:43:11.537Z,97856.68
2019-01-28T17:45:40.541Z,97854.88
2019-01-28T17:48:10.322Z,97861.00
2019-01-28T17:50:43.665Z,97868.94
2019-01-28T17:53:11.677Z,97860.59
2019-01-28T17:55:42.045Z,97860.81
2019-01-28T17:58:10.934Z,97861.16
2019-01-28T18:00:50.884Z,97856.20
2019-01-28T18:03:19.883Z,97857.14
2019-01-28T18:05:48.770Z,97865.91
2019-01-28T18:08:17.760Z,97868.42
2019-01-28T18:10:46.657Z,97866.11
2019-01-28T18:13:15.710Z,97866.30
2019-01-28T18:15:44.636Z,97856.72
2019-01-28T18:18:13.527Z,97846.76
2019-01-28T18:20:42.418Z,97854.88
2019-01-28T18:23:12.844Z,97861.98
2019-01-28T18:25:41.838Z,97860.52
2019-01-28T18:28:10.728Z,97856.39
2019-01-28T18:30:47.301Z,97860.20
2019-01-28T18:33:16.190Z,97859.69
2019-01-28T18:35:44.977Z,97866.16
2019-01-28T18:38:14.072Z,97866.52
2019-01-28T18:40:42.963Z,97877.39
2019-01-28T18:43:11.856Z,97882.70
2019-01-28T18:45:40.949Z,97877.45
2019-01-28T18:48:10.148Z,97881.73
2019-01-28T18:50:39.345Z,97873.75
2019-01-28T18:53:08.339Z,97871.78
2019-01-28T18:55:37.229Z,97869.80
2019-01-28T18:58:06.916Z,97870.94
2019-01-28T19:00:36.178Z,97866.81
2019-01-28T19:03:05.745Z,97861.00
2019-01-28T19:05:42.109Z,97859.78
2019-01-28T19:08:24.720Z,97857.20
2019-01-28T19:10:55.354Z,97856.16
2019-01-28T19:13:37.657Z,97856.28
2019-01-28T19:16:11.574Z,97861.61
2019-01-28T19:18:41.993Z,97856.33
2019-01-28T19:21:18.359Z,97854.84
2019-01-28T19:23:47.249Z,97848.08
2019-01-28T19:26:16.241Z,97842.23
2019-01-28T19:28:45.235Z,97845.39
2019-01-28T19:31:14.125Z,97857.16
2019-01-28T19:33:43.016Z,97866.06
2019-01-28T19:36:12.011Z,97860.16
2019-01-28T19:38:40.898Z,97849.27
2019-01-28T19:41:09.794Z,97847.11
2019-01-28T19:43:38.685Z,97858.81
2019-01-28T19:46:07.572Z,97858.20
2019-01-28T19:48:36.461Z,97851.63
2019-01-28T19:51:05.688Z,97841.92
2019-01-28T19:53:34.551Z,97845.21
2019-01-28T19:56:03.443Z,97842.50
2019-01-28T19:58:32.384Z,97847.02
2019-01-28T20:01:01.221Z,97846.98
2019-01-28T20:03:30.012Z,97845.66
2019-01-28T20:05:59.328Z,97847.11
2019-01-28T20:08:28.201Z,97852.75
2019-01-28T20:10:56.991Z,97864.03
2019-01-28T20:13:25.980Z,97855.56
2019-01-28T20:15:54.873Z,97861.52
2019-01-28T20:18:23.762Z,97868.26
2019-01-28T20:20:52.669Z,97862.33
2019-01-28T20:23:21.543Z,97863.88
2019-01-28T20:25:50.638Z,97867.52
2019-01-28T20:28:19.723Z,97868.36
2019-01-28T20:30:48.626Z,97863.59
2019-01-28T20:33:17.516Z,97869.04
2019-01-28T20:35:46.523Z,97871.55
2019-01-28T20:38:16.086Z,97873.03
2019-01-28T20:40:44.904Z,97863.59
2019-01-28T20:43:13.797Z,97865.72
2019-01-28T20:45:45.099Z,97861.91
2019-01-28T20:48:13.227Z,97870.77
2019-01-28T20:50:42.530Z,97870.33
2019-01-28T20:53:11.333Z,97876.42
2019-01-28T20:55:40.199Z,97873.06
2019-01-28T20:58:10.529Z,97879.16
2019-01-28T21:00:39.469Z,97871.70
2019-01-28T21:03:08.313Z,97882.59
2019-01-28T21:05:37.190Z,97881.80
2019-01-28T21:08:06.290Z,97880.91
2019-01-28T21:10:35.284Z,97885.42
2019-01-28T21:13:04.516Z,97891.78
2019-01-28T21:15:33.364Z,97894.59
2019-01-28T21:18:02.257Z,97887.45
2019-01-28T21:20:31.454Z,97883.97
2019-01-28T21:23:00.347Z,97883.95
2019-01-28T21:25:29.496Z,97887.92
2019-01-28T21:27:58.435Z,97886.59
2019-01-28T21:30:34.814Z,97888.31
2019-01-28T21:33:03.996Z,97884.39
2019-01-28T21:35:34.422Z,97883.39
2019-01-28T21:38:08.542Z,97883.08
2019-01-28T21:40:37.431Z,97887.50
2019-01-28T21:43:06.419Z,97891.00
2019-01-28T21:45:35.310Z,97883.71
2019-01-28T21:48:04.455Z,97893.64
2019-01-28T21:50:33.300Z,97894.32
2019-01-28T21:53:02.186Z,97895.64
2019-01-28T21:55:30.975Z,97895.80
2019-01-28T21:57:59.864Z,97895.97
2019-01-28T22:00:30.138Z,97895.69
2019-01-28T22:02:59.181Z,97887.56
2019-01-28T22:05:28.075Z,97887.25
2019-01-28T22:07:57.098Z,97889.24
2019-01-28T22:10:25.956Z,97884.81
2019-01-28T22:12:54.855Z,97879.48
2019-01-28T22:15:23.736Z,97887.67
2019-01-28T22:17:52.628Z,97884.44
2019-01-28T22:20:21.519Z,97883.91
2019-01-28T22:22:50.820Z,97888.67
2019-01-28T22:25:19.710Z,97882.06
2019-01-28T22:27:56.974Z,97888.05
2019-01-28T22:30:24.412Z,97882.77
2019-01-28T22:32:53.240Z,97886.59
2019-01-28T22:35:22.131Z,97888.25
2019-01-28T22:37:51.022Z,97885.97
2019-01-28T22:40:20.810Z,97876.57
2019-01-28T22:42:49.590Z,97874.28
2019-01-28T22:45:22.303Z,97876.41
2019-01-28T22:47:51.196Z,97880.69
2019-01-28T22:50:21.721Z,97873.45
2019-01-28T22:52:50.817Z,97873.23
2019-01-28T22:55:24.011Z,97866.43
2019-01-28T22:57:52.901Z,97865.31
2019-01-28T23:00:49.850Z,97874.88
2019-01-28T23:03:20.033Z,97876.16
2019-01-28T23:05:48.958Z,97871.88
2019-01-28T23:08:17.852Z,97874.83
2019-01-28T23:10:46.741Z,97867.91
2019-01-28T23:13:15.733Z,97872.72
2019-01-28T23:15:44.627Z,97862.00
2019-01-28T23:18:13.513Z,97872.07
2019-01-28T23:20:42.570Z,97868.44
2019-01-28T23:23:11.809Z,97871.59
2019-01-28T23:25:40.735Z,97871.25
2019-01-28T23:28:09.690Z,97880.12
2019-01-28T23:30:38.581Z,97876.67
2019-01-28T23:33:07.676Z,97871.55
2019-01-28T23:35:36.570Z,97871.19
2019-01-28T23:38:06.074Z,97865.75
2019-01-28T23:40:34.860Z,97871.03
2019-01-28T23:43:05.014Z,97871.72
2019-01-28T23:45:33.870Z,97873.51
2019-01-28T23:48:02.658Z,97872.19
2019-01-28T23:50:31.445Z,97879.80
2019-01-28T23:53:00.342Z,97878.84
2019-01-28T23:55:29.133Z,97883.64
2019-01-28T23:57:58.017Z,97885.77
